Time;durP1;ratioP1;P1;durP2;ratioP2;P2;SDS_P1;SDS_P2;PMS_P1;PMS_P2;Temp;Humidity;BMP_temperature;BMP_pressure;BME280_temperature;BME280_humidity;BME280_pressure;Samples;Min_cycle;Max_cycle;Signal;HPM_P1;HPM_P2
2021/07/28 00:01:30;;;;;;;11.90;9.15;;;;;;;19.97;63.83;93917.00;5092345;28;20417;-60
2021/07/28 00:03:56;;;;;;;11.63;9.48;;;;;;;19.99;64.09;93914.34;5092603;28;20020;-60
2021/07/28 00:06:22;;;;;;;15.25;9.55;;;;;;;19.89;64.32;93908.06;5092551;28;20477;-59
2021/07/28 00:08:50;;;;;;;13.85;9.13;;;;;;;19.98;64.09;93912.88;5092504;28;20103;-61
2021/07/28 00:11:17;;;;;;;14.35;9.43;;;;;;;19.97;64.22;93908.59;5079290;28;20074;-61
2021/07/28 00:13:44;;;;;;;12.65;9.18;;;;;;;19.87;63.84;93916.34;5072146;28;20028;-62
2021/07/28 00:16:12;;;;;;;16.30;9.57;;;;;;;19.83;64.37;93914.00;5072038;28;20433;-61
2021/07/28 00:23:56;;;;;;;11.85;9.93;;;;;;;19.56;64.97;93913.53;5071514;28;20116;-61
2021/07/28 00:26:22;;;;;;;13.38;10.43;;;;;;;19.45;65.48;93906.53;5071855;28;20017;-60
2021/07/28 00:28:47;;;;;;;17.25;11.77;;;;;;;19.59;65.22;93912.34;5071528;28;20028;-60
2021/07/28 00:31:13;;;;;;;16.17;11.65;;;;;;;19.63;65.32;93910.56;5071267;28;20062;-60
2021/07/28 00:33:38;;;;;;;20.63;15.15;;;;;;;19.60;65.25;93902.59;5071126;28;20029;-60
2021/07/28 00:36:04;;;;;;;16.67;13.75;;;;;;;19.59;65.65;93901.91;5071627;28;20036;-64
2021/07/28 00:38:29;;;;;;;15.60;11.63;;;;;;;19.62;64.56;93902.78;5069838;28;20028;-64
2021/07/28 00:40:55;;;;;;;15.20;10.32;;;;;;;19.61;64.33;93904.84;5078975;28;20063;-60
2021/07/28 00:43:24;;;;;;;13.40;10.15;;;;;;;19.57;64.68;93910.16;5079992;28;20032;-68
2021/07/28 00:45:49;;;;;;;;;;;;;;;19.57;64.48;93910.16;5071777;28;20090;-70
2021/07/28 00:48:15;;;;;;;14.98;10.77;;;;;;;19.54;64.66;93900.16;5077947;28;19912;-69
2021/07/28 00:50:41;;;;;;;12.27;9.98;;;;;;;19.51;65.30;93895.72;5077972;28;20028;-69
2021/07/28 00:53:08;;;;;;;11.95;10.20;;;;;;;19.41;65.86;93903.44;5091238;28;20024;-68
2021/07/28 00:55:33;;;;;;;12.43;11.15;;;;;;;19.43;65.68;93891.63;5087394;28;20025;-68
2021/07/28 00:58:00;;;;;;;13.38;10.48;;;;;;;19.39;65.61;93894.91;5053379;28;20399;-67
2021/07/28 01:00:26;;;;;;;15.13;10.40;;;;;;;19.37;66.11;93891.22;5079103;28;20060;-69
2021/07/28 01:02:51;;;;;;;12.13;10.52;;;;;;;19.34;66.02;93892.41;5088377;28;20492;-67
2021/07/28 01:05:17;;;;;;;15.85;10.45;;;;;;;19.24;66.29;93883.31;5081496;28;20023;-66
2021/07/28 01:07:42;;;;;;;14.43;10.45;;;;;;;19.19;65.71;93882.28;5080273;28;20040;-66
2021/07/28 01:10:08;;;;;;;12.10;10.10;;;;;;;19.12;65.91;93880.41;5062408;28;20020;-66
2021/07/28 01:12:41;;;;;;;14.15;11.07;;;;;;;19.18;65.47;93886.44;5070731;28;20739;-67
2021/07/28 01:15:07;;;;;;;15.45;9.55;;;;;;;19.12;65.48;93879.69;5070821;28;20113;-66
2021/07/28 01:17:32;;;;;;;15.00;10.00;;;;;;;18.99;65.14;93885.75;5070947;28;20032;-66
2021/07/28 01:20:00;;;;;;;11.73;10.02;;;;;;;18.97;65.34;93880.75;5070889;28;20062;-66
2021/07/28 01:22:26;;;;;;;11.87;9.57;;;;;;;19.02;65.41;93882.50;5053117;28;20467;-65
2021/07/28 01:24:51;;;;;;;12.60;10.55;;;;;;;18.98;65.37;93879.41;5070448;28;20478;-65
2021/07/28 01:27:17;;;;;;;13.07;10.57;;;;;;;18.85;65.63;93885.50;5070388;28;20028;-65
2021/07/28 01:29:43;;;;;;;15.55;10.93;;;;;;;18.94;65.67;93876.34;5052918;28;20020;-65
2021/07/28 01:32:08;;;;;;;14.23;10.40;;;;;;;18.92;65.89;93873.41;5070780;28;20482;-65
2021/07/28 01:34:35;;;;;;;14.10;10.40;;;;;;;18.82;66.22;93876.22;5070300;28;20024;-65
2021/07/28 01:37:02;;;;;;;15.23;9.82;;;;;;;18.78;66.52;93883.59;5069659;28;20116;-61
2021/07/28 01:39:27;;;;;;;13.73;9.75;;;;;;;18.77;66.53;93882.13;5092747;28;20034;-61
2021/07/28 01:42:00;;;;;;;18.17;10.23;;;;;;;18.73;66.92;93882.56;5110802;28;20023;-61
2021/07/28 01:44:25;;;;;;;14.00;10.43;;;;;;;18.63;67.38;93875.53;5111121;28;20468;-60
2021/07/28 01:46:51;;;;;;;13.18;10.02;;;;;;;18.66;67.49;93883.50;5111097;28;20057;-61
2021/07/28 01:49:16;;;;;;;14.02;10.80;;;;;;;18.66;67.56;93875.09;5098056;28;20028;-61
2021/07/28 01:51:42;;;;;;;12.93;11.02;;;;;;;18.65;67.72;93878.47;5090352;28;20032;-61
2021/07/28 01:54:09;;;;;;;15.77;10.20;;;;;;;18.54;67.47;93865.09;5090366;28;20035;-61
2021/07/28 01:56:42;;;;;;;19.98;10.07;;;;;;;18.62;66.88;93879.66;5090199;28;20077;-59
2021/07/28 01:59:08;;;;;;;14.98;10.00;;;;;;;18.64;67.15;93874.94;5090045;28;20027;-59
2021/07/28 02:01:33;;;;;;;12.00;10.13;;;;;;;18.56;66.83;93874.38;5080780;28;20511;-58
2021/07/28 02:03:59;;;;;;;14.50;10.55;;;;;;;18.55;66.50;93872.16;5079467;28;20028;-58
2021/07/28 02:06:25;;;;;;;13.63;9.50;;;;;;;18.50;66.56;93876.72;5077761;28;20020;-58
2021/07/28 02:08:50;;;;;;;16.20;9.85;;;;;;;18.46;66.59;93864.53;5084626;28;20031;-58
2021/07/28 02:11:16;;;;;;;15.25;9.95;;;;;;;18.36;66.36;93872.91;5086714;28;20024;-58
2021/07/28 02:13:41;;;;;;;11.50;9.70;;;;;;;18.31;66.54;93867.59;5069160;28;20043;-58
2021/07/28 02:16:07;;;;;;;22.90;11.02;;;;;;;18.21;66.73;93878.81;5077280;28;20066;-64
2021/07/28 02:18:33;;;;;;;12.38;9.80;;;;;;;18.16;66.66;93854.66;5075344;28;20020;-66
2021/07/28 02:20:58;;;;;;;14.40;9.75;;;;;;;18.29;66.57;93871.00;5070222;28;20410;-65
2021/07/28 02:23:24;;;;;;;13.52;10.00;;;;;;;18.30;66.83;93872.44;5070054;28;20430;-60
2021/07/28 02:25:49;;;;;;;15.13;9.57;;;;;;;18.30;66.81;93868.94;5070078;28;20452;-61
2021/07/28 02:28:15;;;;;;;10.75;9.65;;;;;;;18.26;66.66;93868.66;5070149;28;20035;-59
2021/07/28 02:30:40;;;;;;;12.00;9.55;;;;;;;18.25;66.51;93873.50;5070135;28;20020;-59
2021/07/28 02:33:05;;;;;;;11.80;9.50;;;;;;;18.24;66.34;93876.88;5084123;28;20102;-59
2021/07/28 02:35:31;;;;;;;13.15;9.90;;;;;;;18.17;66.61;93873.63;5110554;28;20676;-59
2021/07/28 02:37:56;;;;;;;15.65;10.35;;;;;;;18.13;66.90;93875.41;5110234;28;20500;-59
2021/07/28 02:40:22;;;;;;;15.52;9.85;;;;;;;18.12;66.88;93873.94;5110273;28;20083;-58
2021/07/28 02:42:48;;;;;;;11.52;9.57;;;;;;;18.03;66.78;93877.47;5092104;28;20027;-58
2021/07/28 02:45:14;;;;;;;11.35;9.93;;;;;;;18.04;67.14;93882.47;5092311;28;20409;-58
2021/07/28 02:47:39;;;;;;;13.73;10.25;;;;;;;17.87;67.88;93879.81;5110535;28;20027;-58
2021/07/28 02:50:05;;;;;;;14.85;10.40;;;;;;;17.81;67.68;93879.34;5091547;28;20485;-58
2021/07/28 02:52:31;;;;;;;12.27;9.55;;;;;;;17.92;67.37;93881.56;5090173;28;20028;-59
2021/07/28 02:54:56;;;;;;;14.52;10.15;;;;;;;17.96;67.28;93878.34;5089906;28;20122;-59
2021/07/28 02:57:22;;;;;;;11.52;10.32;;;;;;;17.93;67.53;93883.03;5089612;28;20086;-60
2021/07/28 02:59:47;;;;;;;13.40;10.05;;;;;;;17.93;67.68;93871.88;5090188;28;20028;-59
2021/07/28 03:02:12;;;;;;;17.33;11.30;;;;;;;17.90;67.54;93877.91;5093471;28;20044;-60
2021/07/28 03:04:38;;;;;;;15.55;10.48;;;;;;;17.90;68.09;93870.25;5093489;28;20035;-59
2021/07/28 03:07:04;;;;;;;13.43;10.63;;;;;;;17.87;67.69;93874.22;5093433;28;20035;-59
2021/07/28 03:09:29;;;;;;;11.63;10.52;;;;;;;17.82;68.08;93875.22;5093599;28;20024;-60
2021/07/28 03:11:54;;;;;;;12.90;11.00;;;;;;;17.74;68.04;93866.25;5093607;28;20055;-60
2021/07/28 03:14:20;;;;;;;14.25;9.40;;;;;;;17.73;67.71;93867.59;5093328;28;20114;-60
2021/07/28 03:16:45;;;;;;;12.07;9.88;;;;;;;17.59;67.56;93865.78;5092906;28;20082;-60
2021/07/28 03:19:11;;;;;;;17.13;10.73;;;;;;;17.56;67.52;93872.56;5072173;28;20074;-60
2021/07/28 03:21:36;;;;;;;12.52;9.98;;;;;;;17.60;66.63;93884.03;5073075;28;20032;-58
2021/07/28 03:24:02;;;;;;;17.42;10.55;;;;;;;17.46;67.16;93875.28;5072929;28;20413;-59
2021/07/28 03:26:28;;;;;;;13.77;10.60;;;;;;;17.39;67.91;93876.16;5076999;28;20031;-59
2021/07/28 03:28:53;;;;;;;20.15;10.23;;;;;;;17.50;67.85;93881.19;5094166;28;20038;-58
2021/07/28 03:31:19;;;;;;;13.95;10.38;;;;;;;17.56;67.64;93886.50;5092167;28;20024;-60
2021/07/28 03:33:44;;;;;;;13.63;10.82;;;;;;;17.53;67.67;93891.22;5091592;28;20028;-59
2021/07/28 03:36:10;;;;;;;12.57;11.27;;;;;;;17.51;68.32;93887.53;5091790;28;20029;-64
2021/07/28 03:38:35;;;;;;;14.63;11.82;;;;;;;17.58;68.31;93890.19;5091918;28;20531;-64
2021/07/28 03:41:00;;;;;;;15.82;12.73;;;;;;;17.59;69.00;93894.44;5103291;28;20034;-63
2021/07/28 03:43:26;;;;;;;16.88;13.32;;;;;;;17.63;69.06;93891.25;5112368;28;20042;-61
2021/07/28 03:45:53;;;;;;;11.70;10.50;;;;;;;17.63;68.25;93886.38;5112709;28;20028;-63
2021/07/28 03:48:18;;;;;;;13.40;10.30;;;;;;;17.62;68.16;93882.13;5109352;28;20397;-61
2021/07/28 03:50:44;;;;;;;14.43;10.88;;;;;;;17.68;68.22;93879.78;5092854;28;20035;-61
2021/07/28 03:53:09;;;;;;;15.27;11.25;;;;;;;17.75;67.98;93878.16;5092767;28;20413;-61
2021/07/28 03:55:35;;;;;;;14.98;10.95;;;;;;;17.77;67.72;93876.28;5111212;28;20028;-61
2021/07/28 03:58:00;;;;;;;15.98;10.80;;;;;;;17.83;67.32;93884.34;5112919;28;20028;-61
2021/07/28 04:00:25;;;;;;;13.63;10.55;;;;;;;17.82;66.95;93889.19;5112765;28;20038;-60
2021/07/28 04:02:51;;;;;;;10.82;9.65;;;;;;;17.82;66.39;93878.03;5112615;28;20043;-60
2021/07/28 04:05:17;;;;;;;13.25;10.07;;;;;;;17.72;67.37;93882.13;5112745;28;20027;-62
2021/07/28 04:07:42;;;;;;;11.82;9.35;;;;;;;17.72;67.01;93876.53;5112728;28;20036;-62
2021/07/28 04:10:09;;;;;;;15.80;10.02;;;;;;;17.79;67.34;93884.06;5112888;28;20019;-61
2021/07/28 04:12:34;;;;;;;11.98;9.77;;;;;;;17.82;67.08;93878.03;5111616;28;20115;-60
2021/07/28 04:15:00;;;;;;;14.77;10.18;;;;;;;17.85;67.29;93873.31;5112443;28;20020;-62
2021/07/28 04:17:25;;;;;;;12.20;9.90;;;;;;;17.87;67.58;93876.25;5112312;28;20026;-60
2021/07/28 04:19:51;;;;;;;16.02;11.63;;;;;;;17.88;67.84;93881.28;5112477;28;20016;-61
2021/07/28 04:22:20;;;;;;;14.57;10.93;;;;;;;17.85;68.15;93878.91;5112646;28;20026;-62
2021/07/28 04:24:46;;;;;;;16.50;11.18;;;;;;;17.93;68.18;93874.66;5112158;28;20570;-62
2021/07/28 04:27:12;;;;;;;13.77;10.65;;;;;;;17.94;68.63;93870.56;5091818;28;20910;-66
2021/07/28 04:29:37;;;;;;;14.63;11.65;;;;;;;18.00;68.48;93882.16;5091838;28;20023;-66
2021/07/28 04:32:03;;;;;;;22.17;15.55;;;;;;;18.07;68.45;93870.13;5092137;28;20024;-64
2021/07/28 04:34:28;;;;;;;23.10;17.20;;;;;;;18.15;68.39;93869.94;5092016;28;20027;-61
2021/07/28 04:36:54;;;;;;;22.88;18.00;;;;;;;18.18;68.85;93874.38;5091618;28;20043;-60
2021/07/28 04:39:19;;;;;;;16.85;13.75;;;;;;;18.21;68.87;93867.63;5091587;28;20027;-61
2021/07/28 04:41:45;;;;;;;19.15;13.27;;;;;;;18.29;68.90;93870.25;5090930;28;20026;-61
2021/07/28 04:44:10;;;;;;;18.10;13.85;;;;;;;18.35;69.23;93870.69;5112273;28;20401;-61
2021/07/28 04:46:36;;;;;;;17.17;13.55;;;;;;;18.38;69.10;93869.50;5112125;28;20020;-61
2021/07/28 04:49:01;;;;;;;16.00;12.60;;;;;;;18.45;69.38;93865.88;5102280;28;20023;-61
2021/07/28 04:51:27;;;;;;;20.60;13.23;;;;;;;18.50;69.01;93864.81;5091568;28;20409;-61
2021/07/28 04:53:53;;;;;;;15.25;12.27;;;;;;;18.59;68.72;93861.25;5091319;28;20024;-61
2021/07/28 04:56:18;;;;;;;19.88;12.52;;;;;;;18.64;68.15;93863.03;5091133;28;20032;-61
2021/07/28 04:58:44;;;;;;;18.50;12.13;;;;;;;18.76;68.33;93869.47;5091292;28;20012;-66
2021/07/28 05:01:09;;;;;;;16.05;12.57;;;;;;;18.80;68.81;93861.34;5104648;28;20056;-63
2021/07/28 05:03:35;;;;;;;15.05;12.43;;;;;;;18.85;69.38;93854.72;5111580;28;20028;-64
2021/07/28 05:06:00;;;;;;;15.70;11.98;;;;;;;18.95;68.91;93861.00;5111809;28;20020;-59
2021/07/28 05:08:26;;;;;;;14.07;12.18;;;;;;;19.00;69.60;93859.22;5111441;28;20047;-62
2021/07/28 05:10:51;;;;;;;38.85;14.65;;;;;;;19.11;69.54;93870.53;5111527;28;20039;-62
2021/07/28 05:13:17;;;;;;;39.63;14.73;;;;;;;19.14;69.74;93846.97;5111243;28;20030;-62
2021/07/28 05:15:42;;;;;;;27.70;14.20;;;;;;;19.32;69.60;93856.59;5111580;28;20020;-62
2021/07/28 05:18:08;;;;;;;22.88;12.45;;;;;;;19.42;69.82;93870.59;5111594;28;20438;-62
2021/07/28 05:20:33;;;;;;;15.00;11.68;;;;;;;19.51;69.30;93862.13;5111285;28;20503;-62
2021/07/28 05:22:59;;;;;;;206.57;25.58;;;;;;;19.59;69.12;93861.94;5094227;28;20028;-62
2021/07/28 05:25:27;;;;;;;71.15;15.35;;;;;;;19.67;68.99;93857.63;5090826;28;20020;-62
2021/07/28 05:27:53;;;;;;;25.40;11.77;;;;;;;19.78;68.94;93861.06;5090811;28;20064;-62
2021/07/28 05:30:18;;;;;;;36.90;14.30;;;;;;;19.86;69.23;93862.34;5090983;28;20070;-61
2021/07/28 05:32:44;;;;;;;15.15;11.93;;;;;;;19.92;68.61;93867.63;5091013;28;20502;-61
2021/07/28 05:35:10;;;;;;;23.35;12.15;;;;;;;20.03;68.34;93859.28;5090590;28;20033;-61
2021/07/28 05:37:35;;;;;;;15.43;13.77;;;;;;;20.13;68.39;93864.81;5090857;28;20027;-61
2021/07/28 05:40:01;;;;;;;24.05;15.75;;;;;;;20.22;68.15;93867.59;5090279;28;20062;-61
2021/07/28 05:42:26;;;;;;;22.15;17.98;;;;;;;20.35;68.79;93866.28;5088118;28;20024;-61
2021/07/28 05:44:51;;;;;;;27.58;18.77;;;;;;;20.46;68.95;93871.22;5070641;28;20029;-61
2021/07/28 05:47:17;;;;;;;22.55;18.05;;;;;;;20.46;68.77;93854.38;5070415;28;20029;-61
2021/07/28 05:49:42;;;;;;;21.90;16.70;;;;;;;20.56;68.55;93866.25;5085817;28;20020;-61
2021/07/28 05:52:08;;;;;;;19.83;15.98;;;;;;;20.65;68.54;93864.69;5090340;28;20032;-61
2021/07/28 05:54:33;;;;;;;32.38;15.95;;;;;;;20.70;68.11;93864.34;5090699;28;20035;-61
2021/07/28 05:56:59;;;;;;;19.60;15.07;;;;;;;20.84;68.37;93873.66;5090195;28;20059;-64
2021/07/28 05:59:24;;;;;;;19.23;15.60;;;;;;;21.05;67.50;93861.63;5090605;28;20069;-60
2021/07/28 06:01:50;;;;;;;24.33;15.38;;;;;;;21.08;67.84;93871.63;5090115;28;20477;-60
2021/07/28 06:04:15;;;;;;;16.70;14.43;;;;;;;21.21;66.71;93861.88;5090239;28;20028;-62
2021/07/28 06:06:41;;;;;;;17.13;14.75;;;;;;;21.26;67.05;93849.56;5090256;28;20016;-63
2021/07/28 06:09:06;;;;;;;88.10;19.23;;;;;;;21.30;66.79;93849.81;5090126;28;20024;-61
2021/07/28 06:11:32;;;;;;;25.20;16.40;;;;;;;21.39;66.96;93855.31;5090190;28;20093;-61
2021/07/28 06:13:57;;;;;;;21.98;14.77;;;;;;;21.59;66.87;93858.59;5081201;28;20085;-61
2021/07/28 06:16:22;;;;;;;16.13;14.45;;;;;;;21.73;66.29;93848.94;5079468;28;20020;-61
2021/07/28 06:18:48;;;;;;;22.10;15.20;;;;;;;21.78;65.87;93852.72;5078110;28;20029;-61
2021/07/28 06:21:13;;;;;;;18.63;14.75;;;;;;;21.84;66.08;93841.84;5077274;28;20544;-62
2021/07/28 06:23:39;;;;;;;19.85;14.02;;;;;;;22.01;66.76;93844.25;5077144;28;20094;-61
2021/07/28 06:26:04;;;;;;;21.80;13.85;;;;;;;21.97;65.66;93829.22;5071835;28;20033;-61
2021/07/28 06:28:30;;;;;;;19.88;12.93;;;;;;;22.25;64.67;93840.03;5080805;28;20036;-61
2021/07/28 06:30:55;;;;;;;60.42;15.25;;;;;;;22.29;64.81;93845.88;5076960;28;20048;-62
2021/07/28 06:33:22;;;;;;;25.90;13.10;;;;;;;22.43;64.25;93843.13;5077166;28;20647;-62
2021/07/28 06:35:51;;;;;;;21.05;11.10;;;;;;;22.55;63.55;93836.09;5081687;28;20036;-62
2021/07/28 06:38:18;;;;;;;14.23;10.73;;;;;;;22.73;61.63;93838.50;5088175;28;20084;-62
2021/07/28 06:40:44;;;;;;;57.03;12.90;;;;;;;22.88;60.36;93837.91;5086978;28;20052;-62
2021/07/28 06:43:09;;;;;;;11.48;8.20;;;;;;;23.16;55.59;93840.19;5081697;28;20035;-63
2021/07/28 06:57:29;;;;;;;10.35;8.25;;;;;;;24.58;51.58;93834.78;5084771;27;20620;-61
2021/07/28 06:59:55;;;;;;;17.00;9.27;;;;;;;24.47;52.59;93826.47;5085083;28;20028;-61
2021/07/28 07:02:21;;;;;;;11.60;8.25;;;;;;;24.58;53.08;93834.78;5083796;28;20095;-61
2021/07/28 07:04:46;;;;;;;58.60;11.02;;;;;;;24.61;51.71;93825.06;5085510;28;20484;-63
2021/07/28 07:07:12;;;;;;;25.13;8.60;;;;;;;24.75;50.02;93830.69;5084787;28;20081;-63
2021/07/28 07:09:37;;;;;;;11.45;7.88;;;;;;;24.88;49.00;93835.53;5084816;28;20031;-59
2021/07/28 07:12:03;;;;;;;22.08;8.52;;;;;;;24.99;49.11;93831.09;5086172;28;20445;-58
2021/07/28 07:14:29;;;;;;;12.18;7.85;;;;;;;25.14;49.94;93819.81;5086662;28;20488;-64
2021/07/28 07:16:56;;;;;;;12.93;8.38;;;;;;;25.34;49.04;93820.72;5085567;28;20020;-65
2021/07/28 07:19:21;;;;;;;9.40;8.43;;;;;;;25.54;48.07;93823.75;5085846;28;20496;-65
2021/07/28 07:21:47;;;;;;;12.38;7.45;;;;;;;25.63;48.92;93819.19;5086208;28;20023;-63
2021/07/28 07:24:12;;;;;;;13.25;7.93;;;;;;;25.82;47.76;93816.50;5085874;28;20032;-61
2021/07/28 07:26:37;;;;;;;7.90;7.13;;;;;;;25.97;47.12;93821.38;5086026;28;20023;-60
2021/07/28 07:29:03;;;;;;;13.07;7.85;;;;;;;26.06;48.51;93819.63;5086292;28;20028;-60
2021/07/28 07:31:28;;;;;;;11.48;7.88;;;;;;;26.24;48.94;93818.34;5086025;28;20024;-55
2021/07/28 07:33:54;;;;;;;15.93;8.30;;;;;;;26.43;47.56;93819.06;5085807;28;20016;-60
2021/07/28 07:36:19;;;;;;;10.75;8.02;;;;;;;26.70;47.82;93813.13;5084967;28;20012;-60
2021/07/28 07:38:45;;;;;;;29.75;10.23;;;;;;;26.98;48.73;93819.94;5085724;28;20035;-64
2021/07/28 07:41:10;;;;;;;17.33;8.23;;;;;;;27.26;47.34;93817.44;5084931;28;20016;-61
2021/07/28 07:43:36;;;;;;;13.32;7.45;;;;;;;27.62;46.57;93813.13;5085282;28;20051;-61
2021/07/28 07:46:02;;;;;;;10.90;6.97;;;;;;;28.03;46.50;93806.81;5085418;28;20020;-62
2021/07/28 07:48:28;;;;;;;12.95;7.45;;;;;;;28.46;43.90;93810.44;5085423;28;20511;-63
2021/07/28 07:50:54;;;;;;;10.82;6.68;;;;;;;28.83;40.51;93811.63;5084822;28;20051;-62
2021/07/28 07:53:19;;;;;;;7.85;6.68;;;;;;;29.15;41.09;93815.50;5085366;28;20055;-60
2021/07/28 07:55:45;;;;;;;17.17;6.57;;;;;;;29.65;39.51;93814.16;5084271;28;20513;-60
2021/07/28 07:58:10;;;;;;;7.90;6.80;;;;;;;29.76;39.13;93793.16;5071340;28;20027;-66
2021/07/28 08:00:36;;;;;;;10.68;6.63;;;;;;;30.27;38.70;93803.81;5071722;28;20109;-66
2021/07/28 08:03:01;;;;;;;9.90;5.97;;;;;;;30.37;36.10;93814.75;5071469;28;20020;-65
2021/07/28 08:05:27;;;;;;;9.48;6.18;;;;;;;30.81;35.37;93810.19;5071148;28;20036;-60
2021/07/28 08:07:52;;;;;;;8.70;6.50;;;;;;;31.05;36.18;93816.50;5068955;28;20078;-65
2021/07/28 08:10:18;;;;;;;6.70;5.93;;;;;;;31.63;35.72;93816.38;5071243;28;20036;-64
2021/07/28 08:12:43;;;;;;;9.68;5.85;;;;;;;32.16;33.50;93813.19;5070127;28;20082;-64
2021/07/28 08:15:09;;;;;;;12.02;6.40;;;;;;;32.74;32.60;93802.13;5070694;28;20067;-65
2021/07/28 08:17:35;;;;;;;15.18;5.78;;;;;;;33.12;32.99;93793.44;5066693;28;20024;-65
2021/07/28 08:20:01;;;;;;;8.98;5.53;;;;;;;33.39;31.00;93792.41;5070507;28;20035;-65
2021/07/28 08:22:27;;;;;;;6.63;5.57;;;;;;;33.36;30.96;93797.38;5070987;28;20437;-62
2021/07/28 08:24:53;;;;;;;8.25;5.90;;;;;;;34.07;29.47;93799.06;5064552;28;20052;-64
2021/07/28 08:27:18;;;;;;;9.90;5.95;;;;;;;34.85;28.69;93798.41;5070625;28;20027;-65
2021/07/28 08:29:44;;;;;;;6.97;5.63;;;;;;;35.39;28.36;93798.84;5070936;28;20416;-61
2021/07/28 08:32:09;;;;;;;9.15;5.70;;;;;;;34.72;28.17;93799.72;5071000;28;20043;-63
2021/07/28 08:34:34;;;;;;;8.32;6.13;;;;;;;34.28;29.69;93792.13;5066706;28;20024;-66
2021/07/28 08:37:00;;;;;;;11.93;6.22;;;;;;;35.05;29.57;93798.63;5055469;28;20032;-64
2021/07/28 08:39:26;;;;;;;6.93;5.22;;;;;;;35.83;27.43;93794.81;5071013;28;20052;-65
2021/07/28 08:41:53;;;;;;;8.95;5.78;;;;;;;36.42;27.07;93790.72;5070826;28;20028;-63
2021/07/28 08:44:20;;;;;;;7.38;5.40;;;;;;;36.84;25.17;93790.09;5070737;28;20716;-61
2021/07/28 08:46:45;;;;;;;6.25;5.28;;;;;;;37.24;26.13;93793.72;5070624;28;20505;-61
2021/07/28 08:49:14;;;;;;;7.65;4.93;;;;;;;37.00;26.08;93793.00;5070677;28;20146;-63
2021/07/28 08:51:43;;;;;;;8.48;5.10;;;;;;;36.29;25.64;93792.84;5070578;28;20700;-63
2021/07/28 08:54:08;;;;;;;8.05;5.13;;;;;;;36.99;24.53;93783.63;5070558;28;20021;-65
2021/07/28 08:56:38;;;;;;;11.30;5.97;;;;;;;37.54;24.15;93790.09;5070349;28;20049;-67
2021/07/28 08:59:04;;;;;;;10.50;5.45;;;;;;;38.25;24.44;93787.03;5070937;28;20029;-65
2021/07/28 09:01:29;;;;;;;11.85;5.53;;;;;;;38.61;24.12;93783.91;5070565;28;20382;-65
2021/07/28 09:03:55;;;;;;;8.85;4.70;;;;;;;39.12;23.28;93787.16;5070693;28;20649;-67
2021/07/28 09:06:27;;;;;;;6.70;5.30;;;;;;;39.70;22.04;93786.66;5070532;28;20020;-65
2021/07/28 09:09:00;;;;;;;12.85;5.45;;;;;;;39.84;20.66;93785.78;5069550;28;20024;-67
2021/07/28 09:11:26;;;;;;;8.02;5.25;;;;;;;39.37;20.96;93788.41;5070131;28;20016;-64
2021/07/28 09:13:55;;;;;;;7.68;5.13;;;;;;;39.49;23.18;93779.63;5069950;28;20032;-60
2021/07/28 09:16:20;;;;;;;8.60;5.30;;;;;;;39.30;22.77;93790.66;5069779;28;20038;-61
2021/07/28 09:18:50;;;;;;;32.67;7.03;;;;;;;39.22;23.30;93787.81;5069659;28;20146;-65
2021/07/28 09:21:19;;;;;;;10.02;4.95;;;;;;;38.98;21.38;93781.50;5069613;28;20127;-64
2021/07/28 09:23:44;;;;;;;;;;;;;;;39.22;21.78;93776.25;5070621;28;20033;-64
2021/07/28 09:26:30;;;;;;;6.43;4.60;;;;;;;39.50;21.44;93781.06;5069603;28;19920;-61
2021/07/28 09:29:09;;;;;;;22.17;5.85;;;;;;;39.75;21.72;93770.72;5069920;28;20078;-61
2021/07/28 09:31:40;;;;;;;10.70;5.60;;;;;;;40.06;21.65;93780.50;5069793;28;20029;-60
2021/07/28 09:34:10;;;;;;;7.57;5.38;;;;;;;39.63;21.29;93770.84;5069596;28;20032;-65
2021/07/28 09:36:37;;;;;;;12.20;5.05;;;;;;;40.22;20.88;93773.06;5069843;28;20028;-62
2021/07/28 09:39:03;;;;;;;8.43;6.20;;;;;;;40.63;19.87;93774.66;5069487;28;20028;-59
2021/07/28 09:41:29;;;;;;;8.55;4.85;;;;;;;41.15;20.55;93769.56;5069750;28;20024;-59
2021/07/28 09:43:59;;;;;;;13.35;5.15;;;;;;;41.46;19.61;93774.09;5069407;28;20035;-63
2021/07/28 09:46:35;;;;;;;11.25;5.18;;;;;;;41.62;19.03;93764.41;5067195;28;20021;-61
2021/07/28 09:49:19;;;;;;;9.75;5.15;;;;;;;41.19;19.03;93764.44;5068867;28;20024;-60
2021/07/28 09:51:46;;;;;;;8.63;4.93;;;;;;;39.68;20.18;93763.56;5062342;28;20056;-59
2021/07/28 09:54:13;;;;;;;10.15;5.05;;;;;;;39.96;20.99;93759.63;5069229;28;20098;-60
2021/07/28 09:56:49;;;;;;;6.82;5.03;;;;;;;40.43;19.95;93762.69;5069050;28;20056;-60
2021/07/28 09:59:15;;;;;;;8.93;5.00;;;;;;;39.69;20.63;93761.38;5069405;28;20078;-60
2021/07/28 10:01:42;;;;;;;5.80;5.15;;;;;;;39.81;20.39;93749.69;5069233;28;20100;-59
2021/07/28 10:04:13;;;;;;;7.38;5.30;;;;;;;40.19;21.60;93755.03;5068964;28;20030;-60
2021/07/28 10:06:41;;;;;;;12.93;4.90;;;;;;;40.80;20.94;93746.22;5069262;28;20032;-59
2021/07/28 10:09:08;;;;;;;10.45;5.22;;;;;;;40.58;20.23;93750.16;5068986;28;20025;-58
2021/07/28 10:11:34;;;;;;;7.30;4.90;;;;;;;40.00;19.68;93751.63;5068964;28;20064;-58
2021/07/28 10:14:00;;;;;;;8.10;5.30;;;;;;;39.01;20.95;93745.38;5069132;28;20055;-60
2021/07/28 10:16:26;;;;;;;8.52;5.13;;;;;;;38.56;21.59;93747.88;5068888;28;20086;-61
2021/07/28 10:18:52;;;;;;;7.63;5.30;;;;;;;38.70;20.86;93742.03;5068951;28;20039;-61
2021/07/28 10:21:17;;;;;;;8.32;4.82;;;;;;;38.67;22.39;93740.56;5067353;28;20025;-60
2021/07/28 10:23:45;;;;;;;6.35;4.60;;;;;;;39.56;21.55;93742.75;5069092;28;20016;-62
2021/07/28 10:26:17;;;;;;;10.82;5.25;;;;;;;39.31;20.90;93742.94;5068999;28;20028;-60
2021/07/28 10:28:46;;;;;;;16.10;5.57;;;;;;;39.14;21.04;93735.91;5067892;28;20082;-60
2021/07/28 10:31:16;;;;;;;7.88;5.18;;;;;;;38.80;20.56;93736.19;5069025;28;20035;-60
2021/07/28 10:34:00;;;;;;;7.40;4.82;;;;;;;38.41;20.94;93737.88;5068707;28;20024;-60
2021/07/28 10:36:44;;;;;;;10.73;5.43;;;;;;;38.85;21.19;93734.69;5067699;28;20012;-61
2021/07/28 10:39:10;;;;;;;11.73;5.75;;;;;;;39.79;19.23;93724.41;5068725;28;20057;-66
2021/07/28 10:41:39;;;;;;;9.70;5.38;;;;;;;40.20;20.03;93732.59;5068870;28;20033;-61
2021/07/28 10:44:11;;;;;;;10.52;4.15;;;;;;;39.76;19.99;93720.09;5068443;28;20139;-60
2021/07/28 10:46:52;;;;;;;11.20;5.20;;;;;;;39.15;19.58;93720.03;5068618;28;20028;-59
2021/07/28 10:49:33;;;;;;;10.20;5.25;;;;;;;39.14;19.64;93726.50;5068705;28;20056;-61
2021/07/28 10:51:59;;;;;;;12.65;5.63;;;;;;;39.81;20.22;93712.09;5068671;28;20024;-62
2021/07/28 10:54:46;;;;;;;12.73;4.80;;;;;;;40.47;18.23;93710.53;5068319;28;20459;-62
2021/07/28 10:57:35;;;;;;;9.68;5.18;;;;;;;39.36;19.51;93709.69;5068127;28;20069;-63
2021/07/28 11:00:01;;;;;;;9.63;5.10;;;;;;;39.32;21.33;93717.69;5068629;28;20032;-64
2021/07/28 11:02:54;;;;;;;13.63;5.13;;;;;;;39.28;19.61;93712.66;5068335;28;20108;-60
2021/07/28 11:05:24;;;;;;;10.07;5.07;;;;;;;38.71;19.57;93713.88;5068587;28;20107;-64
2021/07/28 11:08:02;;;;;;;9.38;4.72;;;;;;;39.32;19.37;93718.41;5068082;28;20409;-63
2021/07/28 11:10:28;;;;;;;11.70;4.85;;;;;;;39.27;19.23;93705.44;5068523;28;20417;-61
2021/07/28 11:12:54;;;;;;;11.60;5.43;;;;;;;39.31;19.97;93711.19;5068277;28;20067;-61
2021/07/28 11:15:19;;;;;;;12.38;5.28;;;;;;;39.90;19.69;93705.47;5068247;28;20029;-63
2021/07/28 11:17:45;;;;;;;13.50;5.28;;;;;;;40.40;18.64;93706.97;5068304;28;20028;-63
2021/07/28 11:20:27;;;;;;;8.73;4.80;;;;;;;40.25;19.24;93705.03;5068258;28;20024;-63
2021/07/28 11:22:52;;;;;;;10.80;4.90;;;;;;;40.76;18.11;93702.84;5068166;28;20029;-60
2021/07/28 11:25:18;;;;;;;13.90;5.45;;;;;;;41.38;17.66;93701.06;5068352;28;20028;-64
2021/07/28 11:28:05;;;;;;;12.40;4.78;;;;;;;41.63;16.74;93693.34;5068281;28;20021;-61
2021/07/28 11:30:30;;;;;;;10.73;4.95;;;;;;;41.20;17.04;93687.59;5068184;28;20024;-59
2021/07/28 11:33:16;;;;;;;11.25;4.95;;;;;;;41.47;16.54;93697.28;5070734;28;20035;-62
2021/07/28 11:35:42;;;;;;;12.65;5.55;;;;;;;41.13;16.45;93694.97;5071643;28;20135;-63
2021/07/28 11:38:17;;;;;;;11.52;5.15;;;;;;;41.71;15.51;93683.81;5072021;28;20562;-65
2021/07/28 11:40:43;;;;;;;15.52;5.55;;;;;;;42.19;16.86;93686.41;5071502;28;20039;-62